createdAt,value
2022-10-23T00:00:43.823Z,56.72
2022-10-23T00:01:43.777Z,58.49
2022-10-23T00:02:44.294Z,59.78
2022-10-23T00:03:43.706Z,58.65
2022-10-23T00:04:43.689Z,60.26
2022-10-23T00:05:44.689Z,60.42
2022-10-23T00:06:43.678Z,48.02
2022-10-23T00:07:43.639Z,54.95
2022-10-23T00:08:43.609Z,53.17
2022-10-23T00:09:43.649Z,53.33
2022-10-23T00:10:43.596Z,55.43
2022-10-23T00:11:43.550Z,56.24
2022-10-23T00:12:44.509Z,57.04
2022-10-23T00:13:43.526Z,55.27
2022-10-23T00:14:43.489Z,58.01
2022-10-23T00:15:43.541Z,54.46
2022-10-23T00:16:43.462Z,54.14
2022-10-23T00:17:43.747Z,60.10
2022-10-23T00:18:43.402Z,60.59
2022-10-23T00:19:43.387Z,57.20
2022-10-23T00:20:43.398Z,54.79
2022-10-23T00:21:43.338Z,54.14
2022-10-23T00:22:45.082Z,58.33
2022-10-23T00:23:43.293Z,59.78
2022-10-23T00:24:43.285Z,57.69
2022-10-23T00:25:43.315Z,50.11
2022-10-23T00:26:43.237Z,50.27
2022-10-23T00:27:43.467Z,56.40
2022-10-23T00:28:43.204Z,56.72
2022-10-23T00:29:43.209Z,53.98
2022-10-23T00:30:43.185Z,58.81
2022-10-23T00:31:43.157Z,52.21
2022-10-23T00:32:43.119Z,55.11
2022-10-23T00:33:43.164Z,58.17
2022-10-23T00:34:43.089Z,55.91
2022-10-23T00:35:43.056Z,54.14
2022-10-23T00:36:43.056Z,53.98
2022-10-23T00:37:43.311Z,54.95
2022-10-23T00:38:43.014Z,51.88
2022-10-23T00:39:42.971Z,58.81
2022-10-23T00:40:43.037Z,59.46
2022-10-23T00:41:42.969Z,56.40
2022-10-23T00:42:43.206Z,59.78
2022-10-23T00:43:42.907Z,60.26
2022-10-23T00:44:42.891Z,55.43
2022-10-23T00:45:43.935Z,52.53
2022-10-23T00:46:42.838Z,51.88
2022-10-23T00:47:42.835Z,48.18
2022-10-23T00:48:42.807Z,57.36
2022-10-23T00:49:42.926Z,50.27
2022-10-23T00:50:42.778Z,54.30
2022-10-23T00:51:43.735Z,53.98
2022-10-23T00:52:42.862Z,53.98
2022-10-23T00:53:43.708Z,58.49
2022-10-23T00:54:42.689Z,54.95
2022-10-23T00:55:42.685Z,57.85
2022-10-23T00:56:42.646Z,59.94
2022-10-23T00:57:42.617Z,60.26
2022-10-23T00:58:42.609Z,60.75
2022-10-23T00:59:42.581Z,58.01
2022-10-23T01:00:42.773Z,54.14
2022-10-23T01:01:42.637Z,51.08
2022-10-23T01:02:42.826Z,48.34
2022-10-23T01:03:42.619Z,49.95
2022-10-23T01:04:42.479Z,48.34
2022-10-23T01:05:42.540Z,53.01
2022-10-23T01:06:42.447Z,52.05
2022-10-23T01:07:42.677Z,58.97
2022-10-23T01:08:42.526Z,57.52
2022-10-23T01:09:42.379Z,54.30
2022-10-23T01:10:42.405Z,59.14
2022-10-23T01:11:42.355Z,53.17
2022-10-23T01:12:42.322Z,48.98
2022-10-23T01:13:42.367Z,50.76
2022-10-23T01:14:42.294Z,53.66
2022-10-23T01:15:42.308Z,52.37
2022-10-23T01:16:42.278Z,57.52
2022-10-23T01:17:44.492Z,55.11
2022-10-23T01:18:43.222Z,60.10
2022-10-23T01:19:42.204Z,55.75
2022-10-23T01:20:42.217Z,55.27
2022-10-23T01:21:42.157Z,57.52
2022-10-23T01:22:42.284Z,53.50
2022-10-23T01:23:42.117Z,49.63
2022-10-23T01:24:42.095Z,54.95
2022-10-23T01:25:42.108Z,50.11
2022-10-23T01:26:42.057Z,49.79
2022-10-23T01:27:42.056Z,52.21
2022-10-23T01:28:42.022Z,46.25
2022-10-23T01:29:42.002Z,44.31
2022-10-23T01:31:42.989Z,55.59
2022-10-23T01:32:42.266Z,53.98
2022-10-23T01:33:41.944Z,50.92
2022-10-23T01:34:41.899Z,53.50
2022-10-23T01:35:41.874Z,53.17
2022-10-23T01:36:41.864Z,54.79
2022-10-23T01:37:41.837Z,51.40
2022-10-23T01:38:41.845Z,52.69
2022-10-23T01:39:41.815Z,47.86
2022-10-23T01:40:41.803Z,48.98
2022-10-23T01:41:42.763Z,58.17
2022-10-23T01:42:42.020Z,49.47
2022-10-23T01:43:41.711Z,59.14
2022-10-23T01:44:41.734Z,58.81
2022-10-23T01:45:41.701Z,54.46
2022-10-23T01:46:41.663Z,52.53
2022-10-23T01:47:41.927Z,44.79
2022-10-23T01:48:41.614Z,46.57
2022-10-23T01:49:41.596Z,52.05
2022-10-23T01:50:41.615Z,50.76
2022-10-23T01:51:41.553Z,54.14
2022-10-23T01:52:41.552Z,58.97
2022-10-23T01:53:41.517Z,57.85
2022-10-23T01:54:41.548Z,53.82
2022-10-23T01:56:41.470Z,51.08
2022-10-23T01:57:41.688Z,50.11
2022-10-23T01:58:41.416Z,54.95
2022-10-23T01:59:41.403Z,58.65
2022-10-23T02:00:41.400Z,57.69
2022-10-23T02:01:41.466Z,50.27
2022-10-23T02:02:41.338Z,46.89
2022-10-23T02:03:41.317Z,56.24
2022-10-23T02:04:41.297Z,53.01
2022-10-23T02:05:41.312Z,52.37
2022-10-23T02:06:41.268Z,45.60
2022-10-23T02:07:41.478Z,45.12
2022-10-23T02:08:41.212Z,49.47
2022-10-23T02:09:41.210Z,54.79
2022-10-23T02:10:41.198Z,51.56
2022-10-23T02:11:41.168Z,51.40
2022-10-23T02:12:41.137Z,57.20
2022-10-23T02:13:41.119Z,58.49
2022-10-23T02:14:41.091Z,49.95
2022-10-23T02:15:41.098Z,46.41
2022-10-23T02:16:41.067Z,55.59
2022-10-23T02:17:41.268Z,52.69
2022-10-23T02:18:41.007Z,55.59
2022-10-23T02:19:40.983Z,55.59
2022-10-23T02:20:41.032Z,56.56
2022-10-23T02:21:40.946Z,59.30
2022-10-23T02:22:41.219Z,51.72
2022-10-23T02:23:40.909Z,57.36
2022-10-23T02:24:40.890Z,53.17
2022-10-23T02:25:40.898Z,59.14
2022-10-23T02:26:40.849Z,53.33
2022-10-23T02:27:40.839Z,55.43
2022-10-23T02:28:40.807Z,56.24
2022-10-23T02:29:40.794Z,55.91
2022-10-23T02:30:40.808Z,52.85
2022-10-23T02:31:40.763Z,59.14
2022-10-23T02:32:41.012Z,53.98
2022-10-23T02:33:40.718Z,54.95
2022-10-23T02:34:40.718Z,57.36
2022-10-23T02:35:40.707Z,60.75
2022-10-23T02:36:40.650Z,58.49
2022-10-23T02:37:40.901Z,57.52
2022-10-23T02:38:40.637Z,54.30
2022-10-23T02:39:40.607Z,53.66
2022-10-23T02:40:40.600Z,56.72
2022-10-23T02:41:40.554Z,54.30
2022-10-23T02:42:40.529Z,52.69
2022-10-23T02:43:40.508Z,54.30
2022-10-23T02:44:40.489Z,59.46
2022-10-23T02:46:40.455Z,51.08
2022-10-23T02:47:40.655Z,54.95
2022-10-23T02:48:40.419Z,56.40
2022-10-23T02:49:40.405Z,56.88
2022-10-23T02:50:40.397Z,53.01
2022-10-23T02:51:40.354Z,56.24
2022-10-23T02:52:40.357Z,53.66
2022-10-23T02:53:40.342Z,53.98
2022-10-23T02:54:40.296Z,58.01
2022-10-23T02:55:40.299Z,53.33
2022-10-23T02:56:40.258Z,57.52
2022-10-23T02:57:40.391Z,53.66
2022-10-23T02:58:40.223Z,54.79
2022-10-23T02:59:40.195Z,53.01
2022-10-23T03:00:40.210Z,58.33
2022-10-23T03:01:40.273Z,59.78
2022-10-23T03:02:40.143Z,60.75
2022-10-23T03:03:40.120Z,52.53
2022-10-23T03:04:41.066Z,54.46
2022-10-23T03:05:40.105Z,54.79
2022-10-23T03:06:40.073Z,49.79
2022-10-23T03:07:40.268Z,46.41
2022-10-23T03:08:40.028Z,52.37
2022-10-23T03:09:40.010Z,55.43
2022-10-23T03:10:41.050Z,59.30
2022-10-23T03:11:39.961Z,59.46
2022-10-23T03:12:40.250Z,50.76
2022-10-23T03:13:39.928Z,51.88
2022-10-23T03:14:39.909Z,61.55
2022-10-23T03:15:39.909Z,56.72
2022-10-23T03:16:39.872Z,55.27
2022-10-23T03:17:39.855Z,54.46
2022-10-23T03:18:39.822Z,51.56
2022-10-23T03:19:39.813Z,56.88
2022-10-23T03:20:39.828Z,57.52
2022-10-23T03:21:39.760Z,52.21
2022-10-23T03:22:40.022Z,53.98
2022-10-23T03:23:39.723Z,55.59
2022-10-23T03:24:39.707Z,58.81
2022-10-23T03:25:39.718Z,57.69
2022-10-23T03:26:39.667Z,56.56
2022-10-23T03:27:39.661Z,60.26
2022-10-23T03:28:39.632Z,58.97
2022-10-23T03:29:39.613Z,59.46
2022-10-23T03:30:39.619Z,55.75
2022-10-23T03:31:39.570Z,59.14
2022-10-23T03:32:39.698Z,60.26
2022-10-23T03:33:39.550Z,55.43
2022-10-23T03:34:39.512Z,54.46
2022-10-23T03:35:39.548Z,51.24
2022-10-23T03:36:39.468Z,50.60
2022-10-23T03:37:39.697Z,53.66
2022-10-23T03:38:39.434Z,61.07
2022-10-23T03:39:39.415Z,55.75
2022-10-23T03:40:39.424Z,56.88
2022-10-23T03:41:39.378Z,55.91
2022-10-23T03:42:39.355Z,57.20
2022-10-23T03:43:39.344Z,61.07
2022-10-23T03:44:39.318Z,61.55
2022-10-23T03:45:39.329Z,53.01
2022-10-23T03:46:39.286Z,52.85
2022-10-23T03:47:39.337Z,59.78
2022-10-23T03:48:39.245Z,55.27
2022-10-23T03:49:39.224Z,51.88
2022-10-23T03:50:39.229Z,52.69
2022-10-23T03:51:39.185Z,51.88
2022-10-23T03:52:39.411Z,52.21
2022-10-23T03:53:39.156Z,56.24
2022-10-23T03:54:39.155Z,56.24
2022-10-23T03:55:39.129Z,57.52
2022-10-23T03:56:39.089Z,56.56
2022-10-23T03:57:39.058Z,58.17
2022-10-23T03:58:39.041Z,54.79
2022-10-23T03:59:39.020Z,50.11
2022-10-23T04:00:39.097Z,55.91
2022-10-23T04:01:39.033Z,59.46
2022-10-23T04:02:39.023Z,53.50
2022-10-23T04:03:38.960Z,53.01
2022-10-23T04:04:38.988Z,57.69
2022-10-23T04:05:38.925Z,63.16
2022-10-23T04:06:38.906Z,58.17
2022-10-23T04:07:38.868Z,60.26
2022-10-23T04:08:38.845Z,58.65
2022-10-23T04:09:38.823Z,58.17
2022-10-23T04:10:38.840Z,59.30
2022-10-23T04:11:38.810Z,53.66
2022-10-23T04:12:39.886Z,52.53
2022-10-23T04:13:38.746Z,54.30
2022-10-23T04:14:38.747Z,58.17
2022-10-23T04:15:38.736Z,59.94
2022-10-23T04:16:38.711Z,59.94
2022-10-23T04:17:38.666Z,58.33
2022-10-23T04:18:38.646Z,59.94
2022-10-23T04:19:38.634Z,54.62
2022-10-23T04:20:38.632Z,59.14
2022-10-23T04:21:38.595Z,57.20
2022-10-23T04:22:38.564Z,57.69
2022-10-23T04:23:38.572Z,57.69
2022-10-23T04:24:38.529Z,58.17
2022-10-23T04:25:38.597Z,63.16
2022-10-23T04:26:38.485Z,58.65
2022-10-23T04:27:38.495Z,59.94
2022-10-23T04:28:38.448Z,52.85
2022-10-23T04:29:38.442Z,58.01
2022-10-23T04:30:38.443Z,57.85
2022-10-23T04:31:38.383Z,60.26
2022-10-23T04:32:38.367Z,60.10
2022-10-23T04:33:38.344Z,53.98
2022-10-23T04:34:38.331Z,58.49
2022-10-23T04:35:38.339Z,60.91
2022-10-23T04:36:38.338Z,62.20
2022-10-23T04:37:38.270Z,60.91
2022-10-23T04:38:38.252Z,57.20
2022-10-23T04:39:38.234Z,60.26
2022-10-23T04:40:38.250Z,62.20
2022-10-23T04:41:38.186Z,60.75
2022-10-23T04:42:38.189Z,57.85
2022-10-23T04:43:38.187Z,57.04
2022-10-23T04:44:38.130Z,59.46
2022-10-23T04:45:38.166Z,61.23
2022-10-23T04:46:38.093Z,60.91
2022-10-23T04:47:38.069Z,59.78
2022-10-23T04:48:38.046Z,60.42
2022-10-23T04:49:38.034Z,62.20
2022-10-23T04:50:38.064Z,58.01
2022-10-23T04:51:37.988Z,65.90
2022-10-23T04:52:37.975Z,59.78
2022-10-23T04:53:37.948Z,61.23
2022-10-23T04:54:37.966Z,55.11
2022-10-23T04:55:37.957Z,64.29
2022-10-23T04:56:37.931Z,66.55
2022-10-23T04:57:37.867Z,61.23
2022-10-23T04:58:37.861Z,61.23
2022-10-23T04:59:37.847Z,62.20
2022-10-23T05:00:37.897Z,60.26
2022-10-23T05:01:37.906Z,59.46
2022-10-23T05:02:37.766Z,56.56
2022-10-23T05:03:37.746Z,61.55
2022-10-23T05:04:37.726Z,58.65
2022-10-23T05:05:37.728Z,58.49
2022-10-23T05:06:37.692Z,60.91
2022-10-23T05:07:37.661Z,57.20
2022-10-23T05:08:37.645Z,54.95
2022-10-23T05:09:37.623Z,58.49
2022-10-23T05:10:37.634Z,59.62
2022-10-23T05:11:37.586Z,57.20
2022-10-23T05:12:37.571Z,60.91
2022-10-23T05:13:37.552Z,58.49
2022-10-23T05:14:37.530Z,57.20
2022-10-23T05:15:37.590Z,60.75
2022-10-23T05:16:37.490Z,58.33
2022-10-23T05:17:37.467Z,62.36
2022-10-23T05:18:37.449Z,58.17
2022-10-23T05:19:37.432Z,57.52
2022-10-23T05:20:37.430Z,60.42
2022-10-23T05:21:37.388Z,61.71
2022-10-23T05:22:37.372Z,60.10
2022-10-23T05:23:37.343Z,58.33
2022-10-23T05:24:37.321Z,62.04
2022-10-23T05:25:37.331Z,56.07
2022-10-23T05:26:37.285Z,57.69
2022-10-23T05:27:37.362Z,62.36
2022-10-23T05:28:37.259Z,58.33
2022-10-23T05:29:37.225Z,54.79
2022-10-23T05:30:37.232Z,57.04
2022-10-23T05:31:37.196Z,55.75
2022-10-23T05:32:37.163Z,60.10
2022-10-23T05:33:37.151Z,54.30
2022-10-23T05:34:37.120Z,62.52
2022-10-23T05:35:37.128Z,57.04
2022-10-23T05:36:37.082Z,61.07
2022-10-23T05:37:37.062Z,59.78
2022-10-23T05:38:37.056Z,62.04
2022-10-23T05:39:37.034Z,58.97
2022-10-23T05:40:37.039Z,59.14
2022-10-23T05:41:36.984Z,58.01
2022-10-23T05:42:39.505Z,62.68
2022-10-23T05:43:36.959Z,60.26
2022-10-23T05:44:36.922Z,59.94
2022-10-23T05:45:36.895Z,62.52
2022-10-23T05:46:36.901Z,61.71
2022-10-23T05:47:36.856Z,60.59
2022-10-23T05:48:36.840Z,65.42
2022-10-23T05:49:36.815Z,64.78
2022-10-23T05:50:36.800Z,64.13
2022-10-23T05:51:36.807Z,61.23
2022-10-23T05:52:36.758Z,60.10
2022-10-23T05:53:38.906Z,61.71
2022-10-23T05:54:37.721Z,59.46
2022-10-23T05:55:36.700Z,63.49
2022-10-23T05:56:36.703Z,62.68
2022-10-23T05:57:36.658Z,62.68
2022-10-23T05:58:36.638Z,59.94
2022-10-23T05:59:36.620Z,57.20
2022-10-23T06:00:36.599Z,61.87
2022-10-23T06:01:36.815Z,53.66
2022-10-23T06:02:36.644Z,66.71
2022-10-23T06:03:36.540Z,62.68
2022-10-23T06:04:36.520Z,62.20
2022-10-23T06:05:36.536Z,60.91
2022-10-23T06:06:36.508Z,59.78
2022-10-23T06:07:36.464Z,63.16
2022-10-23T06:08:36.446Z,63.49
2022-10-23T06:09:36.432Z,63.33
2022-10-23T06:10:36.403Z,62.68
2022-10-23T06:11:36.407Z,63.49
2022-10-23T06:12:36.361Z,60.59
2022-10-23T06:13:36.351Z,61.55
2022-10-23T06:14:36.331Z,62.84
2022-10-23T06:15:36.303Z,61.23
2022-10-23T06:16:36.307Z,63.16
2022-10-23T06:17:36.250Z,62.68
2022-10-23T06:18:37.238Z,59.94
2022-10-23T06:19:36.339Z,63.16
2022-10-23T06:20:36.197Z,63.16
2022-10-23T06:21:36.210Z,65.42
2022-10-23T06:22:36.160Z,60.10
2022-10-23T06:23:36.139Z,63.00
2022-10-23T06:24:36.119Z,64.78
2022-10-23T06:25:36.095Z,60.91
2022-10-23T06:26:36.108Z,62.84
2022-10-23T06:27:36.057Z,63.81
2022-10-23T06:28:36.031Z,64.29
2022-10-23T06:29:36.018Z,66.39
2022-10-23T06:30:36.012Z,68.64
2022-10-23T06:31:36.018Z,61.23
2022-10-23T06:32:35.953Z,68.48
2022-10-23T06:33:35.933Z,61.55
2022-10-23T06:34:35.913Z,60.10
2022-10-23T06:35:35.903Z,64.29
2022-10-23T06:36:35.898Z,62.20
2022-10-23T06:37:35.855Z,61.23
2022-10-23T06:38:35.830Z,64.13
2022-10-23T06:39:35.816Z,66.71
2022-10-23T06:40:35.789Z,66.55
2022-10-23T06:41:35.791Z,65.42
2022-10-23T06:42:35.746Z,59.62
2022-10-23T06:43:35.728Z,61.71
2022-10-23T06:44:35.703Z,64.13
2022-10-23T06:45:35.686Z,62.20
2022-10-23T06:46:35.689Z,63.16
2022-10-23T06:47:35.647Z,64.29
2022-10-23T06:48:35.622Z,59.78
2022-10-23T06:49:35.597Z,64.13
2022-10-23T06:50:35.581Z,66.55
2022-10-23T06:51:35.583Z,64.94
2022-10-23T06:52:46.527Z,63.00
2022-10-23T06:53:37.517Z,60.75
2022-10-23T06:54:35.492Z,65.26
2022-10-23T06:55:35.477Z,63.16
2022-10-23T06:56:35.476Z,62.84
2022-10-23T06:57:35.430Z,63.16
2022-10-23T06:58:35.407Z,66.23
2022-10-23T06:59:35.386Z,65.26
2022-10-23T07:00:35.413Z,67.19
2022-10-23T07:01:35.615Z,66.39
2022-10-23T07:02:35.315Z,65.10
2022-10-23T07:03:35.295Z,66.71
2022-10-23T07:04:35.268Z,59.94
2022-10-23T07:05:35.246Z,63.16
2022-10-23T07:06:35.258Z,64.78
2022-10-23T07:07:35.209Z,65.74
2022-10-23T07:08:35.192Z,63.81
2022-10-23T07:09:35.165Z,61.87
2022-10-23T07:10:35.145Z,66.06
2022-10-23T07:11:35.151Z,62.84
2022-10-23T07:12:35.100Z,63.65
2022-10-23T07:13:35.083Z,63.49
2022-10-23T07:14:35.058Z,64.29
2022-10-23T07:15:35.039Z,68.32
2022-10-23T07:16:35.042Z,63.81
2022-10-23T07:17:34.997Z,63.81
2022-10-23T07:19:35.948Z,63.49
2022-10-23T07:20:34.924Z,63.81
2022-10-23T07:21:34.929Z,63.16
2022-10-23T07:22:34.882Z,65.58
2022-10-23T07:23:34.857Z,63.16
2022-10-23T07:24:34.836Z,64.13
2022-10-23T07:25:34.810Z,64.13
2022-10-23T07:26:34.817Z,63.33
2022-10-23T07:27:34.767Z,65.58
2022-10-23T07:28:34.750Z,66.87
2022-10-23T07:29:34.728Z,62.84
2022-10-23T07:30:34.720Z,61.39
2022-10-23T07:31:34.713Z,63.81
2022-10-23T07:32:34.668Z,67.51
2022-10-23T07:33:34.650Z,66.39
2022-10-23T07:34:34.635Z,66.39
2022-10-23T07:35:37.217Z,63.65
2022-10-23T07:36:34.616Z,64.78
2022-10-23T07:37:34.569Z,64.61
2022-10-23T07:38:34.550Z,65.90
2022-10-23T07:39:34.537Z,63.33
2022-10-23T07:40:34.517Z,64.94
2022-10-23T07:41:34.529Z,64.45
2022-10-23T07:42:34.508Z,63.16
2022-10-23T07:43:34.464Z,67.51
2022-10-23T07:44:34.438Z,63.33
2022-10-23T07:45:35.250Z,63.97
2022-10-23T07:46:34.403Z,64.61
2022-10-23T07:47:34.409Z,63.49
2022-10-23T07:48:34.362Z,63.81
2022-10-23T07:49:34.341Z,64.78
2022-10-23T07:50:34.328Z,62.68
2022-10-23T07:51:34.332Z,63.33
2022-10-23T07:52:35.941Z,64.13
2022-10-23T07:53:34.273Z,65.58
2022-10-23T07:54:34.245Z,62.52
2022-10-23T07:55:34.228Z,61.87
2022-10-23T07:56:34.239Z,61.87
2022-10-23T07:57:34.195Z,61.39
2022-10-23T07:58:34.174Z,63.00
2022-10-23T07:59:37.161Z,60.26
2022-10-23T08:00:35.136Z,62.36
2022-10-23T08:01:34.244Z,62.84
2022-10-23T08:02:34.165Z,63.00
2022-10-23T08:03:34.088Z,63.00
2022-10-23T08:04:34.064Z,63.81
2022-10-23T08:05:34.044Z,61.39
2022-10-23T08:06:34.064Z,65.26
2022-10-23T08:07:34.002Z,63.81
2022-10-23T08:08:34.055Z,62.36
2022-10-23T08:09:33.968Z,61.87
2022-10-23T08:10:33.951Z,66.55
2022-10-23T08:11:33.958Z,63.97
2022-10-23T08:12:33.918Z,64.29
2022-10-23T08:13:33.899Z,59.78
2022-10-23T08:14:33.879Z,62.36
2022-10-23T08:15:33.862Z,65.10
2022-10-23T08:16:33.873Z,65.90
2022-10-23T08:17:33.820Z,65.10
2022-10-23T08:18:33.807Z,61.55
2022-10-23T08:19:33.788Z,66.39
2022-10-23T08:20:33.768Z,62.84
2022-10-23T08:21:33.778Z,61.71
2022-10-23T08:22:33.722Z,62.68
2022-10-23T08:23:33.709Z,63.97
2022-10-23T08:24:33.696Z,63.65
2022-10-23T08:25:33.679Z,64.29
2022-10-23T08:26:33.679Z,67.19
2022-10-23T08:27:33.635Z,64.78
2022-10-23T08:28:33.615Z,67.68
2022-10-23T08:29:33.596Z,66.71
2022-10-23T08:30:33.580Z,66.71
2022-10-23T08:31:33.588Z,62.68
2022-10-23T08:32:33.557Z,63.97
2022-10-23T08:33:33.536Z,67.51
2022-10-23T08:34:33.502Z,64.45
2022-10-23T08:35:33.483Z,65.10
2022-10-23T08:36:33.500Z,64.78
2022-10-23T08:37:33.446Z,66.55
2022-10-23T08:38:33.426Z,68.80
2022-10-23T08:39:35.124Z,65.58
2022-10-23T08:40:33.433Z,62.36
2022-10-23T08:41:33.409Z,68.48
2022-10-23T08:42:33.373Z,67.03
2022-10-23T08:43:33.352Z,67.19
2022-10-23T08:44:33.326Z,67.35
2022-10-23T08:45:33.291Z,66.71
2022-10-23T08:46:34.315Z,66.71
2022-10-23T08:47:33.265Z,64.29
2022-10-23T08:48:33.258Z,64.61
2022-10-23T08:49:33.233Z,63.65
2022-10-23T08:50:33.212Z,66.39
2022-10-23T08:51:33.220Z,66.87
2022-10-23T08:52:33.171Z,68.00
2022-10-23T08:53:33.160Z,61.71
2022-10-23T08:54:33.156Z,65.58
2022-10-23T08:55:33.120Z,69.77
2022-10-23T08:56:33.127Z,69.45
2022-10-23T08:57:33.096Z,62.84
2022-10-23T08:58:33.059Z,68.96
2022-10-23T08:59:33.054Z,67.51
2022-10-23T09:00:33.055Z,69.61
2022-10-23T09:01:33.144Z,63.49
2022-10-23T09:02:32.987Z,65.26
2022-10-23T09:03:32.974Z,67.35
2022-10-23T09:04:32.950Z,63.65
2022-10-23T09:05:32.933Z,68.16
2022-10-23T09:06:32.939Z,68.48
2022-10-23T09:07:32.907Z,65.42
2022-10-23T09:08:32.879Z,66.87
2022-10-23T09:09:32.862Z,68.64
2022-10-23T09:10:32.842Z,65.58
2022-10-23T09:11:32.851Z,68.00
2022-10-23T09:12:32.822Z,68.16
2022-10-23T09:13:32.785Z,67.35
2022-10-23T09:14:32.771Z,66.71
2022-10-23T09:15:32.749Z,67.19
2022-10-23T09:16:32.771Z,68.16
2022-10-23T09:17:32.710Z,68.16
2022-10-23T09:18:32.689Z,67.35
2022-10-23T09:19:32.666Z,64.78
2022-10-23T09:20:32.670Z,66.71
2022-10-23T09:21:32.668Z,67.51
2022-10-23T09:22:32.615Z,64.61
2022-10-23T09:23:32.597Z,64.78
2022-10-23T09:24:32.595Z,68.64
2022-10-23T09:25:32.559Z,66.87
2022-10-23T09:26:32.566Z,65.26
2022-10-23T09:27:32.530Z,69.13
2022-10-23T09:28:32.495Z,67.68
2022-10-23T09:29:32.549Z,68.16
2022-10-23T09:30:32.463Z,65.10
2022-10-23T09:31:32.462Z,67.35
2022-10-23T09:32:32.430Z,70.25
2022-10-23T09:33:32.413Z,67.84
2022-10-23T09:34:32.384Z,66.55
2022-10-23T09:35:32.372Z,66.39
2022-10-23T09:36:32.371Z,69.13
2022-10-23T09:37:32.323Z,67.03
2022-10-23T09:38:33.328Z,69.61
2022-10-23T09:39:32.289Z,68.64
2022-10-23T09:40:32.267Z,67.68
2022-10-23T09:41:32.322Z,68.32
2022-10-23T09:42:32.237Z,69.77
2022-10-23T09:43:32.208Z,69.77
2022-10-23T09:44:32.226Z,65.58
2022-10-23T09:45:32.229Z,67.51
2022-10-23T09:46:32.183Z,66.55
2022-10-23T09:47:32.130Z,68.96
2022-10-23T09:48:32.144Z,67.84
2022-10-23T09:49:32.100Z,66.06
2022-10-23T09:50:32.080Z,68.96
2022-10-23T09:51:32.096Z,69.13
2022-10-23T09:52:32.037Z,65.58
2022-10-23T09:53:32.071Z,68.32
2022-10-23T09:54:32.009Z,65.58
2022-10-23T09:55:31.980Z,68.96
2022-10-23T09:56:31.988Z,69.45
2022-10-23T09:57:31.954Z,69.45
2022-10-23T09:58:31.926Z,67.51
2022-10-23T09:59:31.914Z,67.68
2022-10-23T10:00:31.883Z,69.45
2022-10-23T10:01:32.033Z,70.58
2022-10-23T10:02:31.841Z,64.29
2022-10-23T10:03:31.833Z,67.03
2022-10-23T10:04:31.802Z,66.87
2022-10-23T10:05:32.787Z,67.35
2022-10-23T10:06:31.833Z,67.03
2022-10-23T10:07:34.676Z,67.51
2022-10-23T10:08:31.750Z,68.64
2022-10-23T10:09:31.725Z,66.39
2022-10-23T10:10:31.706Z,68.32
2022-10-23T10:11:31.708Z,68.48
2022-10-23T10:12:31.656Z,67.03
2022-10-23T10:13:31.649Z,66.23
2022-10-23T10:14:31.626Z,68.16
2022-10-23T10:15:31.622Z,66.39
2022-10-23T10:16:31.688Z,68.16
2022-10-23T10:17:31.559Z,67.84
2022-10-23T10:18:31.567Z,68.16
2022-10-23T10:19:31.530Z,67.19
2022-10-23T10:20:31.511Z,69.61
2022-10-23T10:21:31.521Z,66.06
2022-10-23T10:22:31.463Z,66.55
2022-10-23T10:23:31.466Z,64.61
2022-10-23T10:24:31.449Z,68.32
2022-10-23T10:25:31.445Z,66.06
2022-10-23T10:26:31.411Z,67.51
2022-10-23T10:27:31.437Z,64.45
2022-10-23T10:28:31.361Z,67.19
2022-10-23T10:29:31.345Z,66.55
2022-10-23T10:30:31.339Z,63.81
2022-10-23T10:31:31.322Z,66.71
2022-10-23T10:32:31.281Z,65.42
2022-10-23T10:33:31.255Z,66.71
2022-10-23T10:34:31.245Z,66.39
2022-10-23T10:35:31.237Z,66.71
2022-10-23T10:36:31.233Z,66.39
2022-10-23T10:37:31.186Z,67.35
2022-10-23T10:38:31.174Z,69.13
2022-10-23T10:39:31.204Z,68.64
2022-10-23T10:40:31.125Z,68.64
2022-10-23T10:41:31.148Z,68.96
2022-10-23T10:42:31.090Z,68.16
2022-10-23T10:43:31.069Z,68.64
2022-10-23T10:44:31.078Z,69.93
2022-10-23T10:45:31.036Z,68.00
2022-10-23T10:46:31.041Z,69.29
2022-10-23T10:47:31.003Z,69.77
2022-10-23T10:48:30.993Z,70.58
2022-10-23T10:49:30.959Z,69.93
2022-10-23T10:50:30.940Z,69.61
2022-10-23T10:51:30.951Z,68.80
2022-10-23T10:52:30.902Z,68.96
2022-10-23T10:53:30.884Z,70.42
2022-10-23T10:54:30.874Z,66.87
2022-10-23T10:55:30.849Z,69.77
2022-10-23T10:56:30.855Z,68.48
2022-10-23T10:57:30.844Z,66.23
2022-10-23T10:58:30.784Z,69.45
2022-10-23T10:59:31.354Z,69.77
2022-10-23T11:00:30.757Z,66.55
2022-10-23T11:01:30.871Z,66.87
2022-10-23T11:02:30.743Z,69.77
2022-10-23T11:03:30.690Z,67.35
2022-10-23T11:04:30.683Z,66.55
2022-10-23T11:05:30.656Z,64.29
2022-10-23T11:06:30.660Z,67.51
2022-10-23T11:07:30.625Z,66.55
2022-10-23T11:08:31.496Z,68.16
2022-10-23T11:09:30.587Z,68.64
2022-10-23T11:10:30.557Z,66.06
2022-10-23T11:11:30.566Z,66.06
2022-10-23T11:12:30.533Z,66.71
2022-10-23T11:13:30.505Z,68.64
2022-10-23T11:14:30.502Z,68.64
2022-10-23T11:15:30.466Z,67.19
2022-10-23T11:16:30.476Z,69.13
2022-10-23T11:17:30.424Z,67.19
2022-10-23T11:18:30.441Z,67.51
2022-10-23T11:19:30.440Z,68.64
2022-10-23T11:20:30.376Z,69.45
2022-10-23T11:21:30.355Z,68.64
2022-10-23T11:22:30.331Z,68.48
2022-10-23T11:23:30.339Z,67.51
2022-10-23T11:24:30.292Z,68.32
2022-10-23T11:25:30.357Z,69.29
2022-10-23T11:26:30.289Z,69.29
2022-10-23T11:27:30.237Z,70.09
2022-10-23T11:28:30.215Z,70.74
2022-10-23T11:29:30.200Z,69.45
2022-10-23T11:30:30.186Z,70.09
2022-10-23T11:31:30.184Z,70.25
2022-10-23T11:32:30.161Z,69.77
2022-10-23T11:33:30.121Z,70.58
2022-10-23T11:34:30.106Z,71.06
2022-10-23T11:35:30.086Z,69.93
2022-10-23T11:36:30.092Z,70.90
2022-10-23T11:37:30.048Z,69.45
2022-10-23T11:38:30.034Z,68.64
2022-10-23T11:39:30.036Z,69.61
2022-10-23T11:40:29.987Z,69.13
2022-10-23T11:41:29.966Z,69.13
2022-10-23T11:42:29.943Z,69.45
2022-10-23T11:43:29.924Z,70.25
2022-10-23T11:44:29.940Z,69.45
2022-10-23T11:45:29.891Z,69.61
2022-10-23T11:46:29.901Z,71.54
2022-10-23T11:47:29.853Z,69.61
2022-10-23T11:48:29.837Z,69.61
2022-10-23T11:49:29.818Z,71.06
2022-10-23T11:50:29.801Z,67.35
2022-10-23T11:51:29.809Z,70.25
2022-10-23T11:52:29.757Z,69.93
2022-10-23T11:53:29.733Z,70.90
2022-10-23T11:54:29.712Z,70.09
2022-10-23T11:55:29.697Z,68.32
2022-10-23T11:56:29.722Z,69.61
2022-10-23T11:58:29.658Z,67.68
2022-10-23T11:59:29.641Z,67.68
2022-10-23T12:00:29.596Z,68.16
2022-10-23T12:01:29.683Z,70.90
2022-10-23T12:02:29.674Z,69.77
2022-10-23T12:03:29.539Z,69.13
2022-10-23T12:04:29.526Z,70.58
2022-10-23T12:05:29.535Z,68.32
2022-10-23T12:06:29.514Z,69.77
2022-10-23T12:07:29.452Z,68.16
2022-10-23T12:08:29.439Z,71.06
2022-10-23T12:09:29.409Z,69.61
2022-10-23T12:10:29.391Z,68.48
2022-10-23T12:11:29.400Z,64.78
2022-10-23T12:12:30.356Z,70.09
2022-10-23T12:13:29.352Z,68.80
2022-10-23T12:14:29.310Z,68.16
2022-10-23T12:15:29.300Z,66.71
2022-10-23T12:16:29.302Z,70.58
2022-10-23T12:17:29.267Z,70.74
2022-10-23T12:18:29.229Z,68.96
2022-10-23T12:19:29.208Z,70.58
2022-10-23T12:20:29.201Z,69.93
2022-10-23T12:21:29.210Z,69.61
2022-10-23T12:22:29.164Z,69.77
2022-10-23T12:23:29.145Z,66.39
2022-10-23T12:24:29.121Z,66.71
2022-10-23T12:25:29.110Z,69.93
2022-10-23T12:26:29.114Z,70.09
2022-10-23T12:27:29.048Z,69.77
2022-10-23T12:28:29.040Z,69.61
2022-10-23T12:29:29.006Z,68.96
2022-10-23T12:30:28.978Z,69.45
2022-10-23T12:31:28.954Z,68.64
2022-10-23T12:32:28.965Z,71.22
2022-10-23T12:33:28.917Z,69.77
2022-10-23T12:34:28.904Z,69.61
2022-10-23T12:35:28.897Z,68.96
2022-10-23T12:36:28.878Z,67.03
2022-10-23T12:37:28.836Z,65.90
2022-10-23T12:38:32.596Z,69.45
2022-10-23T12:39:30.813Z,70.58
2022-10-23T12:40:28.777Z,67.19
2022-10-23T12:41:28.754Z,69.77
2022-10-23T12:42:28.766Z,68.32
2022-10-23T12:43:28.749Z,70.58
2022-10-23T12:44:28.698Z,69.77
2022-10-23T12:45:28.709Z,69.29
2022-10-23T12:46:28.679Z,68.48
2022-10-23T12:47:28.750Z,65.26
2022-10-23T12:48:28.611Z,69.77
2022-10-23T12:49:28.599Z,69.61
2022-10-23T12:50:28.575Z,69.77
2022-10-23T12:51:28.556Z,68.00
2022-10-23T12:52:28.579Z,66.87
2022-10-23T12:53:28.505Z,67.35
2022-10-23T12:54:28.488Z,69.93
2022-10-23T12:55:29.807Z,71.06
2022-10-23T12:56:30.577Z,69.77
2022-10-23T12:57:28.461Z,71.06